Airport View

Enter AWOS ICAO identifier for current METAR.

ex. KFNL

KPLR 251255Z AUTO 20006KT 9SM BKN007 OVC017 20/20 A2996 RMK A01

25 Sep 2020 13:04

Frequency: 119.625

Phone: (205) 884-4359

Other Area AWOS: KASN - KANB - KSCD - KBHM

TAF KANB 251121Z 2512/2612 VRB03KT P6SM VCSH OVC011 TEMPO 2512/2514 OVC009 FM252100 25006KT P6SM BKN025 FM260800 00000KT 4SM BR BKN014 FM261000 00000KT 3SM BR BKN007